sensor_id;sensor_type;location;lat;lon;timestamp;P1;durP1;ratioP1;P2;durP2;ratioP2
64651;SDS011;51062;45.120;37.660;2022-12-29T00:01:56;0.40;;;0.40;;
64651;SDS011;51062;45.120;37.660;2022-12-29T00:04:22;0.40;;;0.40;;
64651;SDS011;51062;45.120;37.660;2022-12-29T00:06:48;0.30;;;0.30;;
64651;SDS011;51062;45.120;37.660;2022-12-29T00:09:15;2.50;;;1.42;;
64651;SDS011;51062;45.120;37.660;2022-12-29T00:11:42;0.40;;;0.40;;
64651;SDS011;51062;45.120;37.660;2022-12-29T00:14:08;0.40;;;0.40;;
64651;SDS011;51062;45.120;37.660;2022-12-29T00:16:54;2.13;;;1.95;;
64651;SDS011;51062;45.120;37.660;2022-12-29T00:19:20;0.45;;;0.45;;
64651;SDS011;51062;45.120;37.660;2022-12-29T00:22:05;0.40;;;0.40;;
64651;SDS011;51062;45.120;37.660;2022-12-29T00:24:50;0.85;;;0.85;;
64651;SDS011;51062;45.120;37.660;2022-12-29T00:27:34;0.40;;;0.40;;
64651;SDS011;51062;45.120;37.660;2022-12-29T00:30:22;0.40;;;0.40;;
64651;SDS011;51062;45.120;37.660;2022-12-29T00:33:14;0.25;;;0.25;;
64651;SDS011;51062;45.120;37.660;2022-12-29T00:39:02;0.40;;;0.40;;
64651;SDS011;51062;45.120;37.660;2022-12-29T00:41:49;0.40;;;0.40;;
64651;SDS011;51062;45.120;37.660;2022-12-29T00:44:33;0.40;;;0.40;;
64651;SDS011;51062;45.120;37.660;2022-12-29T00:46:59;0.40;;;0.40;;
64651;SDS011;51062;45.120;37.660;2022-12-29T00:49:31;0.40;;;0.40;;
64651;SDS011;51062;45.120;37.660;2022-12-29T00:51:59;0.40;;;0.40;;
64651;SDS011;51062;45.120;37.660;2022-12-29T00:54:33;0.30;;;0.30;;
64651;SDS011;51062;45.120;37.660;2022-12-29T00:57:01;0.40;;;0.40;;
64651;SDS011;51062;45.120;37.660;2022-12-29T00:59:28;0.63;;;0.63;;
64651;SDS011;51062;45.120;37.660;2022-12-29T01:01:56;0.63;;;0.60;;
64651;SDS011;51062;45.120;37.660;2022-12-29T01:04:23;0.40;;;0.40;;
64651;SDS011;51062;45.120;37.660;2022-12-29T01:06:51;0.57;;;0.57;;
64651;SDS011;51062;45.120;37.660;2022-12-29T01:09:18;0.40;;;0.40;;
64651;SDS011;51062;45.120;37.660;2022-12-29T01:12:03;0.40;;;0.40;;
64651;SDS011;51062;45.120;37.660;2022-12-29T01:14:30;0.40;;;0.40;;
64651;SDS011;51062;45.120;37.660;2022-12-29T01:16:57;0.40;;;0.40;;
64651;SDS011;51062;45.120;37.660;2022-12-29T01:19:23;0.40;;;0.40;;
64651;SDS011;51062;45.120;37.660;2022-12-29T01:21:50;0.35;;;0.35;;
64651;SDS011;51062;45.120;37.660;2022-12-29T01:24:18;0.50;;;0.50;;
64651;SDS011;51062;45.120;37.660;2022-12-29T01:26:45;0.30;;;0.30;;
64651;SDS011;51062;45.120;37.660;2022-12-29T01:29:13;0.40;;;0.40;;
64651;SDS011;51062;45.120;37.660;2022-12-29T01:31:39;0.40;;;0.40;;
64651;SDS011;51062;45.120;37.660;2022-12-29T01:34:05;0.60;;;0.60;;
64651;SDS011;51062;45.120;37.660;2022-12-29T01:36:32;0.40;;;0.40;;
64651;SDS011;51062;45.120;37.660;2022-12-29T01:38:58;0.50;;;0.50;;
64651;SDS011;51062;45.120;37.660;2022-12-29T01:41:25;0.30;;;0.30;;
64651;SDS011;51062;45.120;37.660;2022-12-29T01:43:52;0.38;;;0.38;;
64651;SDS011;51062;45.120;37.660;2022-12-29T01:48:57;1.60;;;1.50;;
64651;SDS011;51062;45.120;37.660;2022-12-29T01:51:48;0.40;;;0.40;;
64651;SDS011;51062;45.120;37.660;2022-12-29T01:54:29;0.73;;;0.73;;
64651;SDS011;51062;45.120;37.660;2022-12-29T01:56:59;0.32;;;0.32;;
64651;SDS011;51062;45.120;37.660;2022-12-29T01:59:33;0.40;;;0.40;;
64651;SDS011;51062;45.120;37.660;2022-12-29T02:02:03;1.42;;;1.38;;
64651;SDS011;51062;45.120;37.660;2022-12-29T02:04:31;0.40;;;0.40;;
64651;SDS011;51062;45.120;37.660;2022-12-29T02:07:17;0.40;;;0.40;;
64651;SDS011;51062;45.120;37.660;2022-12-29T02:09:51;0.40;;;0.40;;
64651;SDS011;51062;45.120;37.660;2022-12-29T02:12:20;0.70;;;0.70;;
64651;SDS011;51062;45.120;37.660;2022-12-29T02:14:48;0.40;;;0.40;;
64651;SDS011;51062;45.120;37.660;2022-12-29T02:20:32;0.40;;;0.40;;
64651;SDS011;51062;45.120;37.660;2022-12-29T02:23:30;0.30;;;0.30;;
64651;SDS011;51062;45.120;37.660;2022-12-29T02:39:39;1.45;;;1.45;;
64651;SDS011;51062;45.120;37.660;2022-12-29T02:42:14;1.08;;;1.00;;
64651;SDS011;51062;45.120;37.660;2022-12-29T02:44:51;0.40;;;0.40;;
64651;SDS011;51062;45.120;37.660;2022-12-29T02:48:20;2.92;;;0.90;;
64651;SDS011;51062;45.120;37.660;2022-12-29T02:51:15;0.98;;;0.88;;
64651;SDS011;51062;45.120;37.660;2022-12-29T02:53:43;0.30;;;0.30;;
64651;SDS011;51062;45.120;37.660;2022-12-29T02:56:29;0.40;;;0.40;;
64651;SDS011;51062;45.120;37.660;2022-12-29T02:58:55;0.40;;;0.40;;
64651;SDS011;51062;45.120;37.660;2022-12-29T03:20:21;0.32;;;0.32;;
64651;SDS011;51062;45.120;37.660;2022-12-29T03:22:55;0.40;;;0.40;;
64651;SDS011;51062;45.120;37.660;2022-12-29T03:25:30;0.60;;;0.60;;
64651;SDS011;51062;45.120;37.660;2022-12-29T03:28:05;0.40;;;0.40;;
64651;SDS011;51062;45.120;37.660;2022-12-29T03:30:40;0.45;;;0.45;;
64651;SDS011;51062;45.120;37.660;2022-12-29T03:33:10;0.40;;;0.40;;
64651;SDS011;51062;45.120;37.660;2022-12-29T03:35:41;0.30;;;0.30;;
64651;SDS011;51062;45.120;37.660;2022-12-29T03:38:18;0.40;;;0.40;;
64651;SDS011;51062;45.120;37.660;2022-12-29T03:40:55;0.50;;;0.50;;
64651;SDS011;51062;45.120;37.660;2022-12-29T03:45:54;0.40;;;0.40;;
64651;SDS011;51062;45.120;37.660;2022-12-29T03:48:20;0.65;;;0.65;;
64651;SDS011;51062;45.120;37.660;2022-12-29T03:50:48;0.70;;;0.70;;
64651;SDS011;51062;45.120;37.660;2022-12-29T03:53:15;0.30;;;0.30;;
64651;SDS011;51062;45.120;37.660;2022-12-29T03:55:41;0.47;;;0.47;;
64651;SDS011;51062;45.120;37.660;2022-12-29T03:58:09;0.32;;;0.32;;
64651;SDS011;51062;45.120;37.660;2022-12-29T04:00:56;0.43;;;0.43;;
64651;SDS011;51062;45.120;37.660;2022-12-29T04:03:22;0.40;;;0.40;;
64651;SDS011;51062;45.120;37.660;2022-12-29T04:05:49;0.68;;;0.68;;
64651;SDS011;51062;45.120;37.660;2022-12-29T04:08:16;0.52;;;0.52;;
64651;SDS011;51062;45.120;37.660;2022-12-29T04:10:42;0.40;;;0.40;;
64651;SDS011;51062;45.120;37.660;2022-12-29T04:13:09;0.40;;;0.40;;
64651;SDS011;51062;45.120;37.660;2022-12-29T04:15:35;0.40;;;0.40;;
64651;SDS011;51062;45.120;37.660;2022-12-29T04:18:02;0.45;;;0.45;;
64651;SDS011;51062;45.120;37.660;2022-12-29T04:20:28;2.05;;;1.20;;
64651;SDS011;51062;45.120;37.660;2022-12-29T04:23:12;0.40;;;0.40;;
64651;SDS011;51062;45.120;37.660;2022-12-29T04:25:39;0.60;;;0.60;;
64651;SDS011;51062;45.120;37.660;2022-12-29T04:28:07;0.38;;;0.38;;
64651;SDS011;51062;45.120;37.660;2022-12-29T04:30:52;0.40;;;0.40;;
64651;SDS011;51062;45.120;37.660;2022-12-29T04:33:29;0.40;;;0.40;;
64651;SDS011;51062;45.120;37.660;2022-12-29T04:35:57;0.40;;;0.40;;
64651;SDS011;51062;45.120;37.660;2022-12-29T04:38:23;0.40;;;0.40;;
64651;SDS011;51062;45.120;37.660;2022-12-29T04:40:50;0.50;;;0.50;;
64651;SDS011;51062;45.120;37.660;2022-12-29T04:43:19;0.40;;;0.40;;
64651;SDS011;51062;45.120;37.660;2022-12-29T04:46:05;0.68;;;0.60;;
64651;SDS011;51062;45.120;37.660;2022-12-29T04:48:42;0.65;;;0.65;;
64651;SDS011;51062;45.120;37.660;2022-12-29T04:51:26;0.40;;;0.40;;
64651;SDS011;51062;45.120;37.660;2022-12-29T04:53:53;2.42;;;2.03;;
64651;SDS011;51062;45.120;37.660;2022-12-29T04:56:19;0.85;;;0.85;;
64651;SDS011;51062;45.120;37.660;2022-12-29T04:58:46;0.40;;;0.40;;
64651;SDS011;51062;45.120;37.660;2022-12-29T05:01:13;0.40;;;0.40;;
64651;SDS011;51062;45.120;37.660;2022-12-29T05:03:39;0.40;;;0.40;;
64651;SDS011;51062;45.120;37.660;2022-12-29T05:06:05;0.40;;;0.40;;
64651;SDS011;51062;45.120;37.660;2022-12-29T05:08:32;0.70;;;0.70;;
64651;SDS011;51062;45.120;37.660;2022-12-29T05:11:01;2.35;;;0.98;;
64651;SDS011;51062;45.120;37.660;2022-12-29T05:13:27;0.30;;;0.30;;
64651;SDS011;51062;45.120;37.660;2022-12-29T05:15:54;0.30;;;0.30;;
64651;SDS011;51062;45.120;37.660;2022-12-29T05:18:22;0.40;;;0.40;;
64651;SDS011;51062;45.120;37.660;2022-12-29T05:20:49;0.80;;;0.80;;
64651;SDS011;51062;45.120;37.660;2022-12-29T05:23:16;0.40;;;0.40;;
64651;SDS011;51062;45.120;37.660;2022-12-29T05:25:45;0.50;;;0.50;;
64651;SDS011;51062;45.120;37.660;2022-12-29T05:28:17;0.40;;;0.40;;
64651;SDS011;51062;45.120;37.660;2022-12-29T05:31:03;0.40;;;0.40;;
64651;SDS011;51062;45.120;37.660;2022-12-29T05:33:30;0.50;;;0.50;;
64651;SDS011;51062;45.120;37.660;2022-12-29T05:35:56;0.45;;;0.40;;
64651;SDS011;51062;45.120;37.660;2022-12-29T05:38:29;0.30;;;0.30;;
64651;SDS011;51062;45.120;37.660;2022-12-29T05:40:55;0.32;;;0.32;;
64651;SDS011;51062;45.120;37.660;2022-12-29T05:43:40;0.70;;;0.70;;
64651;SDS011;51062;45.120;37.660;2022-12-29T05:46:29;0.40;;;0.40;;
64651;SDS011;51062;45.120;37.660;2022-12-29T05:49:16;0.40;;;0.40;;
64651;SDS011;51062;45.120;37.660;2022-12-29T05:52:05;0.40;;;0.40;;
64651;SDS011;51062;45.120;37.660;2022-12-29T05:54:33;0.40;;;0.40;;
64651;SDS011;51062;45.120;37.660;2022-12-29T05:57:00;0.52;;;0.52;;
64651;SDS011;51062;45.120;37.660;2022-12-29T06:05:48;0.50;;;0.50;;
64651;SDS011;51062;45.120;37.660;2022-12-29T06:08:15;1.20;;;1.15;;
64651;SDS011;51062;45.120;37.660;2022-12-29T06:10:41;0.40;;;0.40;;
64651;SDS011;51062;45.120;37.660;2022-12-29T06:13:08;0.50;;;0.50;;
64651;SDS011;51062;45.120;37.660;2022-12-29T06:15:36;0.60;;;0.60;;
64651;SDS011;51062;45.120;37.660;2022-12-29T06:18:05;0.40;;;0.40;;
64651;SDS011;51062;45.120;37.660;2022-12-29T06:20:31;1.95;;;0.85;;
64651;SDS011;51062;45.120;37.660;2022-12-29T06:22:57;0.93;;;0.93;;
64651;SDS011;51062;45.120;37.660;2022-12-29T06:25:23;0.50;;;0.50;;
64651;SDS011;51062;45.120;37.660;2022-12-29T06:27:50;0.40;;;0.40;;
64651;SDS011;51062;45.120;37.660;2022-12-29T06:30:16;0.75;;;0.75;;
64651;SDS011;51062;45.120;37.660;2022-12-29T06:32:43;0.63;;;0.63;;
64651;SDS011;51062;45.120;37.660;2022-12-29T06:35:11;0.80;;;0.80;;
64651;SDS011;51062;45.120;37.660;2022-12-29T06:37:43;2.88;;;2.67;;
64651;SDS011;51062;45.120;37.660;2022-12-29T06:40:09;0.63;;;0.63;;
64651;SDS011;51062;45.120;37.660;2022-12-29T06:43:00;3.22;;;2.85;;
64651;SDS011;51062;45.120;37.660;2022-12-29T06:45:42;1.15;;;1.05;;
64651;SDS011;51062;45.120;37.660;2022-12-29T06:48:08;0.57;;;0.57;;
64651;SDS011;51062;45.120;37.660;2022-12-29T06:50:34;4.97;;;2.97;;
64651;SDS011;51062;45.120;37.660;2022-12-29T06:53:01;1.02;;;0.93;;
64651;SDS011;51062;45.120;37.660;2022-12-29T06:55:27;3.10;;;2.13;;
64651;SDS011;51062;45.120;37.660;2022-12-29T06:57:54;0.50;;;0.50;;
64651;SDS011;51062;45.120;37.660;2022-12-29T07:00:21;0.60;;;0.60;;
64651;SDS011;51062;45.120;37.660;2022-12-29T07:02:49;0.47;;;0.47;;
64651;SDS011;51062;45.120;37.660;2022-12-29T07:05:15;0.40;;;0.40;;
64651;SDS011;51062;45.120;37.660;2022-12-29T07:07:42;0.50;;;0.50;;
64651;SDS011;51062;45.120;37.660;2022-12-29T07:10:08;0.50;;;0.50;;
64651;SDS011;51062;45.120;37.660;2022-12-29T07:12:34;0.60;;;0.60;;
64651;SDS011;51062;45.120;37.660;2022-12-29T07:15:00;0.40;;;0.40;;
64651;SDS011;51062;45.120;37.660;2022-12-29T07:17:26;0.40;;;0.40;;
64651;SDS011;51062;45.120;37.660;2022-12-29T07:19:52;0.50;;;0.50;;
64651;SDS011;51062;45.120;37.660;2022-12-29T07:22:18;0.30;;;0.30;;
64651;SDS011;51062;45.120;37.660;2022-12-29T07:24:44;0.63;;;0.63;;
64651;SDS011;51062;45.120;37.660;2022-12-29T07:29:37;0.70;;;0.70;;
64651;SDS011;51062;45.120;37.660;2022-12-29T07:32:04;7.88;;;4.03;;
64651;SDS011;51062;45.120;37.660;2022-12-29T07:34:30;2.28;;;1.45;;
64651;SDS011;51062;45.120;37.660;2022-12-29T07:36:56;0.40;;;0.40;;
64651;SDS011;51062;45.120;37.660;2022-12-29T07:39:22;0.63;;;0.63;;
64651;SDS011;51062;45.120;37.660;2022-12-29T07:41:48;0.50;;;0.50;;
64651;SDS011;51062;45.120;37.660;2022-12-29T07:44:19;0.35;;;0.35;;
64651;SDS011;51062;45.120;37.660;2022-12-29T07:47:23;0.70;;;0.70;;
64651;SDS011;51062;45.120;37.660;2022-12-29T07:49:50;0.50;;;0.50;;
64651;SDS011;51062;45.120;37.660;2022-12-29T07:52:16;0.50;;;0.50;;
64651;SDS011;51062;45.120;37.660;2022-12-29T07:54:42;0.73;;;0.73;;
64651;SDS011;51062;45.120;37.660;2022-12-29T07:57:08;0.43;;;0.43;;
64651;SDS011;51062;45.120;37.660;2022-12-29T07:59:34;0.50;;;0.50;;
64651;SDS011;51062;45.120;37.660;2022-12-29T08:02:00;0.40;;;0.40;;
64651;SDS011;51062;45.120;37.660;2022-12-29T08:04:27;0.45;;;0.45;;
64651;SDS011;51062;45.120;37.660;2022-12-29T08:06:53;0.45;;;0.45;;
64651;SDS011;51062;45.120;37.660;2022-12-29T08:09:19;0.40;;;0.40;;
64651;SDS011;51062;45.120;37.660;2022-12-29T08:11:45;0.40;;;0.40;;
64651;SDS011;51062;45.120;37.660;2022-12-29T08:14:11;0.40;;;0.40;;
64651;SDS011;51062;45.120;37.660;2022-12-29T08:16:37;0.43;;;0.43;;
64651;SDS011;51062;45.120;37.660;2022-12-29T08:19:03;0.57;;;0.57;;
64651;SDS011;51062;45.120;37.660;2022-12-29T08:21:30;0.30;;;0.30;;
64651;SDS011;51062;45.120;37.660;2022-12-29T08:23:56;0.45;;;0.45;;
64651;SDS011;51062;45.120;37.660;2022-12-29T08:26:24;0.50;;;0.50;;
64651;SDS011;51062;45.120;37.660;2022-12-29T08:28:53;0.47;;;0.47;;
64651;SDS011;51062;45.120;37.660;2022-12-29T08:31:21;0.60;;;0.60;;
64651;SDS011;51062;45.120;37.660;2022-12-29T08:33:47;0.40;;;0.40;;
64651;SDS011;51062;45.120;37.660;2022-12-29T08:36:14;0.40;;;0.40;;
64651;SDS011;51062;45.120;37.660;2022-12-29T08:38:40;0.43;;;0.43;;
64651;SDS011;51062;45.120;37.660;2022-12-29T08:41:06;0.60;;;0.60;;
64651;SDS011;51062;45.120;37.660;2022-12-29T08:43:32;0.35;;;0.35;;
64651;SDS011;51062;45.120;37.660;2022-12-29T08:48:25;0.40;;;0.40;;
64651;SDS011;51062;45.120;37.660;2022-12-29T08:50:52;0.40;;;0.40;;
64651;SDS011;51062;45.120;37.660;2022-12-29T08:53:18;0.30;;;0.30;;
64651;SDS011;51062;45.120;37.660;2022-12-29T08:55:45;0.40;;;0.40;;
64651;SDS011;51062;45.120;37.660;2022-12-29T08:58:12;0.40;;;0.40;;
64651;SDS011;51062;45.120;37.660;2022-12-29T09:00:41;0.30;;;0.30;;
64651;SDS011;51062;45.120;37.660;2022-12-29T09:03:28;0.35;;;0.35;;
64651;SDS011;51062;45.120;37.660;2022-12-29T09:05:54;0.40;;;0.40;;
64651;SDS011;51062;45.120;37.660;2022-12-29T09:08:21;0.30;;;0.30;;
64651;SDS011;51062;45.120;37.660;2022-12-29T09:10:47;0.50;;;0.50;;
64651;SDS011;51062;45.120;37.660;2022-12-29T09:13:14;0.32;;;0.32;;
64651;SDS011;51062;45.120;37.660;2022-12-29T09:15:41;0.40;;;0.40;;
64651;SDS011;51062;45.120;37.660;2022-12-29T09:18:08;0.40;;;0.40;;
64651;SDS011;51062;45.120;37.660;2022-12-29T09:20:35;0.50;;;0.50;;
64651;SDS011;51062;45.120;37.660;2022-12-29T09:23:01;0.40;;;0.40;;
64651;SDS011;51062;45.120;37.660;2022-12-29T09:25:27;0.40;;;0.40;;
64651;SDS011;51062;45.120;37.660;2022-12-29T09:27:53;0.35;;;0.35;;
64651;SDS011;51062;45.120;37.660;2022-12-29T09:30:20;1.35;;;1.27;;
64651;SDS011;51062;45.120;37.660;2022-12-29T09:32:48;0.70;;;0.70;;
64651;SDS011;51062;45.120;37.660;2022-12-29T09:35:14;0.40;;;0.40;;
64651;SDS011;51062;45.120;37.660;2022-12-29T09:37:42;1.55;;;0.77;;
64651;SDS011;51062;45.120;37.660;2022-12-29T09:40:16;0.32;;;0.32;;
64651;SDS011;51062;45.120;37.660;2022-12-29T09:42:59;0.40;;;0.40;;
64651;SDS011;51062;45.120;37.660;2022-12-29T09:45:36;0.70;;;0.70;;
64651;SDS011;51062;45.120;37.660;2022-12-29T09:48:19;0.40;;;0.40;;
64651;SDS011;51062;45.120;37.660;2022-12-29T09:50:55;0.30;;;0.30;;
64651;SDS011;51062;45.120;37.660;2022-12-29T09:53:38;0.40;;;0.40;;
64651;SDS011;51062;45.120;37.660;2022-12-29T09:56:17;1.48;;;1.35;;
64651;SDS011;51062;45.120;37.660;2022-12-29T09:58:58;0.40;;;0.40;;
64651;SDS011;51062;45.120;37.660;2022-12-29T10:01:46;0.60;;;0.60;;
64651;SDS011;51062;45.120;37.660;2022-12-29T10:04:36;0.30;;;0.30;;
64651;SDS011;51062;45.120;37.660;2022-12-29T10:07:09;0.40;;;0.40;;
64651;SDS011;51062;45.120;37.660;2022-12-29T10:24:21;0.25;;;0.25;;
64651;SDS011;51062;45.120;37.660;2022-12-29T10:26:48;0.40;;;0.40;;
64651;SDS011;51062;45.120;37.660;2022-12-29T10:29:20;0.40;;;0.40;;
64651;SDS011;51062;45.120;37.660;2022-12-29T10:34:49;0.45;;;0.45;;
64651;SDS011;51062;45.120;37.660;2022-12-29T10:37:42;0.40;;;0.40;;
64651;SDS011;51062;45.120;37.660;2022-12-29T10:40:23;0.30;;;0.30;;
64651;SDS011;51062;45.120;37.660;2022-12-29T10:42:54;0.40;;;0.40;;
64651;SDS011;51062;45.120;37.660;2022-12-29T10:45:23;0.35;;;0.35;;
64651;SDS011;51062;45.120;37.660;2022-12-29T10:50:29;0.38;;;0.38;;
64651;SDS011;51062;45.120;37.660;2022-12-29T10:52:56;0.30;;;0.30;;
64651;SDS011;51062;45.120;37.660;2022-12-29T10:55:26;0.30;;;0.30;;
64651;SDS011;51062;45.120;37.660;2022-12-29T10:57:56;0.30;;;0.30;;
64651;SDS011;51062;45.120;37.660;2022-12-29T11:00:30;0.30;;;0.30;;
64651;SDS011;51062;45.120;37.660;2022-12-29T11:05:53;0.38;;;0.38;;
64651;SDS011;51062;45.120;37.660;2022-12-29T11:08:48;0.35;;;0.35;;
64651;SDS011;51062;45.120;37.660;2022-12-29T11:11:26;0.80;;;0.80;;
64651;SDS011;51062;45.120;37.660;2022-12-29T11:14:02;0.35;;;0.35;;
64651;SDS011;51062;45.120;37.660;2022-12-29T11:16:34;2.30;;;1.40;;
64651;SDS011;51062;45.120;37.660;2022-12-29T11:19:01;0.50;;;0.50;;
64651;SDS011;51062;45.120;37.660;2022-12-29T11:21:31;0.32;;;0.32;;
64651;SDS011;51062;45.120;37.660;2022-12-29T11:24:14;0.25;;;0.25;;
64651;SDS011;51062;45.120;37.660;2022-12-29T11:26:49;0.40;;;0.40;;
64651;SDS011;51062;45.120;37.660;2022-12-29T11:29:24;0.40;;;0.40;;
64651;SDS011;51062;45.120;37.660;2022-12-29T11:31:53;0.30;;;0.30;;
64651;SDS011;51062;45.120;37.660;2022-12-29T11:34:31;0.85;;;0.82;;
64651;SDS011;51062;45.120;37.660;2022-12-29T11:37:03;0.40;;;0.40;;
64651;SDS011;51062;45.120;37.660;2022-12-29T11:42:12;1.60;;;1.50;;
64651;SDS011;51062;45.120;37.660;2022-12-29T11:44:44;0.50;;;0.50;;
64651;SDS011;51062;45.120;37.660;2022-12-29T11:47:19;0.43;;;0.43;;
64651;SDS011;51062;45.120;37.660;2022-12-29T11:49:51;0.40;;;0.40;;
64651;SDS011;51062;45.120;37.660;2022-12-29T11:52:21;0.30;;;0.30;;
64651;SDS011;51062;45.120;37.660;2022-12-29T11:54:49;0.40;;;0.40;;
64651;SDS011;51062;45.120;37.660;2022-12-29T11:57:17;1.55;;;1.08;;
64651;SDS011;51062;45.120;37.660;2022-12-29T11:59:50;0.40;;;0.40;;
64651;SDS011;51062;45.120;37.660;2022-12-29T12:02:38;0.40;;;0.40;;
64651;SDS011;51062;45.120;37.660;2022-12-29T12:10:29;0.50;;;0.50;;
64651;SDS011;51062;45.120;37.660;2022-12-29T12:13:10;0.98;;;0.98;;
64651;SDS011;51062;45.120;37.660;2022-12-29T12:15:58;0.40;;;0.40;;
64651;SDS011;51062;45.120;37.660;2022-12-29T12:27:02;0.30;;;0.30;;
64651;SDS011;51062;45.120;37.660;2022-12-29T12:35:03;0.40;;;0.40;;
64651;SDS011;51062;45.120;37.660;2022-12-29T12:40:43;0.30;;;0.30;;
64651;SDS011;51062;45.120;37.660;2022-12-29T12:43:49;0.40;;;0.40;;
64651;SDS011;51062;45.120;37.660;2022-12-29T12:46:24;0.35;;;0.35;;
64651;SDS011;51062;45.120;37.660;2022-12-29T13:05:27;0.50;;;0.50;;
64651;SDS011;51062;45.120;37.660;2022-12-29T13:07:58;0.52;;;0.52;;
64651;SDS011;51062;45.120;37.660;2022-12-29T13:10:41;0.40;;;0.40;;
64651;SDS011;51062;45.120;37.660;2022-12-29T13:22:05;0.40;;;0.40;;
64651;SDS011;51062;45.120;37.660;2022-12-29T13:24:55;0.40;;;0.40;;
64651;SDS011;51062;45.120;37.660;2022-12-29T13:30:15;0.30;;;0.30;;
64651;SDS011;51062;45.120;37.660;2022-12-29T13:35:28;0.47;;;0.47;;
64651;SDS011;51062;45.120;37.660;2022-12-29T13:44:01;0.40;;;0.40;;
64651;SDS011;51062;45.120;37.660;2022-12-29T13:46:33;0.70;;;0.70;;
64651;SDS011;51062;45.120;37.660;2022-12-29T13:49:07;0.40;;;0.40;;
64651;SDS011;51062;45.120;37.660;2022-12-29T13:51:41;5.47;;;1.30;;
64651;SDS011;51062;45.120;37.660;2022-12-29T13:57:08;0.43;;;0.43;;
64651;SDS011;51062;45.120;37.660;2022-12-29T14:07:43;0.40;;;0.40;;
64651;SDS011;51062;45.120;37.660;2022-12-29T14:10:26;0.40;;;0.40;;
64651;SDS011;51062;45.120;37.660;2022-12-29T14:12:59;0.63;;;0.63;;
64651;SDS011;51062;45.120;37.660;2022-12-29T14:15:30;0.55;;;0.55;;
64651;SDS011;51062;45.120;37.660;2022-12-29T14:18:01;0.40;;;0.40;;
64651;SDS011;51062;45.120;37.660;2022-12-29T14:20:30;0.50;;;0.50;;
64651;SDS011;51062;45.120;37.660;2022-12-29T14:28:29;0.43;;;0.43;;
64651;SDS011;51062;45.120;37.660;2022-12-29T14:31:00;0.47;;;0.47;;
64651;SDS011;51062;45.120;37.660;2022-12-29T14:33:30;0.40;;;0.40;;
64651;SDS011;51062;45.120;37.660;2022-12-29T14:39:01;0.40;;;0.40;;
64651;SDS011;51062;45.120;37.660;2022-12-29T14:41:35;0.40;;;0.40;;
64651;SDS011;51062;45.120;37.660;2022-12-29T14:46:49;1.58;;;1.42;;
64651;SDS011;51062;45.120;37.660;2022-12-29T14:49:25;0.95;;;0.95;;
64651;SDS011;51062;45.120;37.660;2022-12-29T14:52:04;0.65;;;0.65;;
64651;SDS011;51062;45.120;37.660;2022-12-29T14:56:59;0.90;;;0.90;;
64651;SDS011;51062;45.120;37.660;2022-12-29T14:59:27;0.35;;;0.35;;
64651;SDS011;51062;45.120;37.660;2022-12-29T15:01:55;0.40;;;0.40;;
64651;SDS011;51062;45.120;37.660;2022-12-29T15:04:23;0.40;;;0.40;;
64651;SDS011;51062;45.120;37.660;2022-12-29T15:06:55;1.65;;;1.55;;
64651;SDS011;51062;45.120;37.660;2022-12-29T15:12:20;0.50;;;0.50;;
64651;SDS011;51062;45.120;37.660;2022-12-29T15:15:17;0.40;;;0.40;;
64651;SDS011;51062;45.120;37.660;2022-12-29T15:17:46;4.57;;;2.58;;
64651;SDS011;51062;45.120;37.660;2022-12-29T15:20:29;0.40;;;0.40;;
64651;SDS011;51062;45.120;37.660;2022-12-29T15:22:57;0.30;;;0.30;;
64651;SDS011;51062;45.120;37.660;2022-12-29T15:25:28;0.47;;;0.47;;
64651;SDS011;51062;45.120;37.660;2022-12-29T15:28:47;0.40;;;0.40;;
64651;SDS011;51062;45.120;37.660;2022-12-29T15:31:21;0.40;;;0.40;;
64651;SDS011;51062;45.120;37.660;2022-12-29T15:33:55;4.65;;;1.10;;
64651;SDS011;51062;45.120;37.660;2022-12-29T15:36:49;0.60;;;0.60;;
64651;SDS011;51062;45.120;37.660;2022-12-29T15:39:34;0.40;;;0.40;;
64651;SDS011;51062;45.120;37.660;2022-12-29T15:42:10;0.60;;;0.53;;
64651;SDS011;51062;45.120;37.660;2022-12-29T15:44:44;0.40;;;0.40;;
64651;SDS011;51062;45.120;37.660;2022-12-29T15:49:51;0.40;;;0.40;;
64651;SDS011;51062;45.120;37.660;2022-12-29T15:52:20;0.30;;;0.30;;
64651;SDS011;51062;45.120;37.660;2022-12-29T15:54:50;0.35;;;0.35;;
64651;SDS011;51062;45.120;37.660;2022-12-29T15:57:23;0.40;;;0.40;;
64651;SDS011;51062;45.120;37.660;2022-12-29T15:59:53;5.57;;;5.05;;
64651;SDS011;51062;45.120;37.660;2022-12-29T16:02:23;5.07;;;2.20;;
64651;SDS011;51062;45.120;37.660;2022-12-29T16:04:50;11.18;;;8.95;;
64651;SDS011;51062;45.120;37.660;2022-12-29T16:07:35;10.45;;;9.35;;
64651;SDS011;51062;45.120;37.660;2022-12-29T16:10:02;8.27;;;7.15;;
64651;SDS011;51062;45.120;37.660;2022-12-29T16:12:32;5.93;;;4.82;;
64651;SDS011;51062;45.120;37.660;2022-12-29T16:15:02;1.67;;;1.42;;
64651;SDS011;51062;45.120;37.660;2022-12-29T16:17:32;0.40;;;0.40;;
64651;SDS011;51062;45.120;37.660;2022-12-29T16:20:04;0.40;;;0.40;;
64651;SDS011;51062;45.120;37.660;2022-12-29T16:22:55;0.52;;;0.52;;
64651;SDS011;51062;45.120;37.660;2022-12-29T16:25:24;0.30;;;0.30;;
64651;SDS011;51062;45.120;37.660;2022-12-29T16:27:54;0.32;;;0.32;;
64651;SDS011;51062;45.120;37.660;2022-12-29T16:30:24;0.30;;;0.30;;
64651;SDS011;51062;45.120;37.660;2022-12-29T16:32:53;0.60;;;0.60;;
64651;SDS011;51062;45.120;37.660;2022-12-29T16:38:16;0.40;;;0.40;;
64651;SDS011;51062;45.120;37.660;2022-12-29T16:40:50;0.40;;;0.40;;
64651;SDS011;51062;45.120;37.660;2022-12-29T16:43:26;0.80;;;0.80;;
64651;SDS011;51062;45.120;37.660;2022-12-29T16:48:46;10.38;;;3.50;;
64651;SDS011;51062;45.120;37.660;2022-12-29T16:51:30;0.80;;;0.77;;
64651;SDS011;51062;45.120;37.660;2022-12-29T16:53:59;0.40;;;0.40;;
64651;SDS011;51062;45.120;37.660;2022-12-29T16:56:28;0.32;;;0.32;;
64651;SDS011;51062;45.120;37.660;2022-12-29T17:01:29;0.40;;;0.40;;
64651;SDS011;51062;45.120;37.660;2022-12-29T17:03:58;0.60;;;0.60;;
64651;SDS011;51062;45.120;37.660;2022-12-29T17:06:26;0.40;;;0.40;;
64651;SDS011;51062;45.120;37.660;2022-12-29T17:08:53;0.30;;;0.30;;
64651;SDS011;51062;45.120;37.660;2022-12-29T17:11:23;0.40;;;0.40;;
64651;SDS011;51062;45.120;37.660;2022-12-29T17:14:18;0.40;;;0.40;;
64651;SDS011;51062;45.120;37.660;2022-12-29T17:16:48;0.90;;;0.85;;
64651;SDS011;51062;45.120;37.660;2022-12-29T17:19:18;0.38;;;0.38;;
64651;SDS011;51062;45.120;37.660;2022-12-29T17:21:46;0.80;;;0.80;;
64651;SDS011;51062;45.120;37.660;2022-12-29T17:24:18;0.40;;;0.40;;
64651;SDS011;51062;45.120;37.660;2022-12-29T17:26:46;0.93;;;0.65;;
64651;SDS011;51062;45.120;37.660;2022-12-29T17:29:37;2.30;;;1.20;;
64651;SDS011;51062;45.120;37.660;2022-12-29T17:32:04;3.42;;;3.20;;
64651;SDS011;51062;45.120;37.660;2022-12-29T17:34:35;1.08;;;1.05;;
64651;SDS011;51062;45.120;37.660;2022-12-29T17:37:01;5.72;;;3.53;;
64651;SDS011;51062;45.120;37.660;2022-12-29T17:39:29;0.77;;;0.77;;
64651;SDS011;51062;45.120;37.660;2022-12-29T17:41:55;15.15;;;1.55;;
64651;SDS011;51062;45.120;37.660;2022-12-29T17:44:27;4.22;;;1.92;;
64651;SDS011;51062;45.120;37.660;2022-12-29T17:46:53;19.42;;;8.10;;
64651;SDS011;51062;45.120;37.660;2022-12-29T17:49:19;20.80;;;6.70;;
64651;SDS011;51062;45.120;37.660;2022-12-29T17:51:45;0.60;;;0.60;;
64651;SDS011;51062;45.120;37.660;2022-12-29T17:54:22;2.75;;;0.73;;
64651;SDS011;51062;45.120;37.660;2022-12-29T17:56:49;0.43;;;0.43;;
64651;SDS011;51062;45.120;37.660;2022-12-29T17:59:16;0.40;;;0.40;;
64651;SDS011;51062;45.120;37.660;2022-12-29T18:01:43;2.70;;;1.77;;